This is the latest recevied weather packets stored in our database for station/object W7MKM-13. If no packets are shown the sender has not sent any weather packets the latest 10 day(s).
| Time | Temp. | Humidity | Pressure | Rain* | Wind** | Luminosity | Snow |
|---|---|---|---|---|---|---|---|
| 1777797016 | 9.44° C | 54% | 1016.8 hPa | 0 mm | - | 0 W/m² | - |
| 1777796415 | 9.44° C | 53% | 1016.8 hPa | 0 mm | - | 0 W/m² | - |
| 1777792515 | 10.56° C | 50% | 1016.7 hPa | 0 mm | - | 0 W/m² | - |
| 1777791315 | 11.11° C | 47% | 1016.7 hPa | 0 mm | - | 0 W/m² | - |
| 1777790715 | 11.11° C | 45% | 1016.7 hPa | 0 mm | - | 0 W/m² | - |
| 1777786816 | 12.78° C | 38% | 1016.6 hPa | 0 mm | - | 0 W/m² | - |
| 1777784716 | 14.44° C | 34% | 1016.9 hPa | 0 mm | - | 0 W/m² | - |
| 1777783516 | 15° C | 32% | 1016.7 hPa | 0 mm | - | 0 W/m² | - |
| 1777782616 | 15.56° C | 30% | 1017.1 hPa | 0 mm | - | 0 W/m² | - |
| 1777782316 | 15.56° C | 30% | 1016.8 hPa | 0 mm | - | 0 W/m² | - |
| 1777781716 | 16.11° C | 28% | 1016.8 hPa | 0 mm | - | 0 W/m² | - |
| 1777778716 | 17.22° C | 27% | 1016.5 hPa | 0 mm | - | 0 W/m² | - |
| 1777775416 | 19.44° C | 22% | 1016.6 hPa | 0 mm | - | 0 W/m² | - |
| 1777774516 | 20° C | 21% | 1016.5 hPa | 0 mm | - | 10 W/m² | - |
| 1777773916 | 20° C | 20% | 1016.5 hPa | 0 mm | - | 21 W/m² | - |
| 1777773316 | 20.56° C | 20% | 1016.1 hPa | 0 mm | - | 34 W/m² | - |
| 1777771816 | 21.11° C | 18% | 1016.3 hPa | 0 mm | - | 100 W/m² | - |
| 1777771516 | 21.11° C | 18% | 1016 hPa | 0 mm | - | 116 W/m² | - |
| 1777771216 | 21.11° C | 18% | 1016.1 hPa | 0 mm | - | 98 W/m² | - |
| 1777769116 | 22.78° C | 15% | 1016.5 hPa | 0 mm | - | 135 W/m² | - |
| 1777767916 | 22.78° C | 12% | 1016.3 hPa | 0 mm | - | 138 W/m² | - |
| 1777766716 | 23.89° C | 11% | 1016.6 hPa | 0 mm | - | 385 W/m² | - |
| 1777765816 | 24.44° C | 12% | 1017 hPa | 0 mm | - | 485 W/m² | - |
| 1777764616 | 23.33° C | 13% | 1016.9 hPa | 0 mm | - | 614 W/m² | - |
| 1777762816 | 22.78° C | 14% | 1017.5 hPa | 0 mm | - | 626 W/m² | - |
* Rain latest hour (hover to see other rain measurements)
** Current wind speed in m/s (hover to see current wind gust speed)